Time;durP1;ratioP1;P1;durP2;ratioP2;P2;SDS_P1;SDS_P2;PMS_P1;PMS_P2;Temp;Humidity;BMP_temperature;BMP_pressure;BME280_temperature;BME280_humidity;BME280_pressure;Samples;Min_cycle;Max_cycle;Signal;HPM_P1;HPM_P2
2023/04/27 00:02:37;;;;;;;29.17;14.95;;;;;;;7.40;100.00;99297.13;5117880;27;20051;-85
2023/04/27 00:05:21;;;;;;;30.13;15.48;;;;;;;7.33;100.00;99295.34;5117997;27;20070;-82
2023/04/27 00:08:05;;;;;;;25.77;14.45;;;;;;;7.43;100.00;99303.78;5118341;27;20039;-83
2023/04/27 00:10:50;;;;;;;29.52;14.98;;;;;;;7.49;100.00;99292.69;5123392;27;20045;-82
2023/04/27 00:13:34;;;;;;;31.15;16.08;;;;;;;7.48;100.00;99306.72;5122419;27;20053;-82
2023/04/27 00:16:18;;;;;;;25.83;14.68;;;;;;;7.43;100.00;99302.00;5116913;27;20039;-83
2023/04/27 00:19:02;;;;;;;29.48;14.82;;;;;;;7.31;100.00;99302.53;5121581;27;20087;-81
2023/04/27 00:21:46;;;;;;;29.42;15.27;;;;;;;7.44;100.00;99297.59;5121068;27;20031;-80
2023/04/27 00:24:30;;;;;;;34.67;15.13;;;;;;;7.38;100.00;99304.31;5121998;27;20084;-83
2023/04/27 00:27:14;;;;;;;23.50;14.05;;;;;;;7.23;100.00;99296.31;5121064;27;20045;-82
2023/04/27 00:29:58;;;;;;;26.85;14.52;;;;;;;7.27;100.00;99295.03;5118737;27;20039;-80
2023/04/27 00:32:42;;;;;;;27.05;14.50;;;;;;;7.28;100.00;99283.59;5117707;27;20142;-79
2023/04/27 00:35:26;;;;;;;28.25;15.07;;;;;;;7.20;100.00;99278.38;5120610;27;20042;-83
2023/04/27 00:38:11;;;;;;;25.67;13.68;;;;;;;7.14;100.00;99281.66;5121678;27;20092;-80
2023/04/27 00:41:05;;;;;;;25.08;14.32;;;;;;;7.10;100.00;99275.97;5124108;27;20045;-80
2023/04/27 00:43:49;;;;;;;29.77;14.02;;;;;;;7.00;100.00;99280.56;5123467;27;20084;-80
2023/04/27 00:46:34;;;;;;;26.15;14.63;;;;;;;7.20;100.00;99273.16;5115258;27;20057;-79
2023/04/27 00:49:19;;;;;;;24.80;14.88;;;;;;;7.24;100.00;99276.28;5123305;27;20046;-80
2023/04/27 00:52:04;;;;;;;25.92;15.25;;;;;;;7.21;100.00;99272.19;5119211;27;20089;-79
2023/04/27 00:54:51;;;;;;;23.95;14.48;;;;;;;7.21;100.00;99271.38;5124057;27;20051;-81
2023/04/27 00:57:36;;;;;;;32.22;15.73;;;;;;;7.14;100.00;99263.41;5122007;27;20050;-81
2023/04/27 01:00:21;;;;;;;28.10;14.85;;;;;;;7.19;100.00;99263.72;5126780;27;20134;-80
2023/04/27 01:03:06;;;;;;;32.13;16.35;;;;;;;7.14;100.00;99260.78;5121479;27;20070;-81
2023/04/27 01:05:50;;;;;;;33.33;17.20;;;;;;;7.11;100.00;99259.31;5123841;27;20061;-80
2023/04/27 01:08:34;;;;;;;30.75;16.77;;;;;;;7.03;100.00;99253.28;5119924;27;20042;-79
2023/04/27 01:11:18;;;;;;;36.15;17.23;;;;;;;7.02;100.00;99255.09;5117259;27;20046;-80
2023/04/27 01:14:04;;;;;;;34.22;17.13;;;;;;;7.11;100.00;99266.34;5114770;27;20043;-80
2023/04/27 01:16:50;;;;;;;32.60;16.40;;;;;;;6.97;100.00;99255.59;5122932;27;20542;-80
2023/04/27 01:19:35;;;;;;;39.20;18.23;;;;;;;6.93;100.00;99264.75;5117753;27;20512;-80
2023/04/27 01:22:20;;;;;;;28.75;16.38;;;;;;;6.87;100.00;99252.31;5117014;27;20042;-81
2023/04/27 01:25:05;;;;;;;32.22;17.33;;;;;;;6.86;100.00;99238.47;5115256;27;20054;-82
2023/04/27 01:27:49;;;;;;;35.45;17.13;;;;;;;6.82;100.00;99246.78;5118884;27;20405;-84
2023/04/27 01:30:33;;;;;;;31.35;17.00;;;;;;;6.76;100.00;99247.47;5119917;27;20031;-83
2023/04/27 01:33:17;;;;;;;28.60;16.45;;;;;;;6.67;100.00;99244.84;5118880;27;20055;-82
2023/04/27 01:36:01;;;;;;;33.95;17.63;;;;;;;6.68;100.00;99246.50;5118810;27;20122;-82
2023/04/27 01:38:45;;;;;;;32.28;16.00;;;;;;;6.64;100.00;99242.56;5122225;27;20034;-85
2023/04/27 01:41:30;;;;;;;32.90;17.80;;;;;;;6.66;100.00;99253.66;5121722;27;20046;-81
2023/04/27 01:44:14;;;;;;;34.88;18.30;;;;;;;6.65;100.00;99251.22;5122388;27;20050;-82
2023/04/27 01:46:58;;;;;;;41.00;19.77;;;;;;;6.71;100.00;99251.38;5121354;27;20153;-85
2023/04/27 01:49:43;;;;;;;34.13;18.60;;;;;;;6.71;100.00;99251.38;5119190;27;20074;-82
2023/04/27 01:52:27;;;;;;;41.05;20.42;;;;;;;6.77;100.00;99264.75;5120269;27;20069;-80
2023/04/27 01:55:11;;;;;;;39.58;18.02;;;;;;;6.74;100.00;99265.09;5116145;27;20050;-81
2023/04/27 01:57:54;;;;;;;35.45;18.95;;;;;;;6.74;100.00;99260.66;5123777;27;20037;-79
2023/04/27 02:00:38;;;;;;;39.58;19.42;;;;;;;6.75;100.00;99261.50;5118212;27;20496;-83
2023/04/27 02:03:23;;;;;;;33.45;18.17;;;;;;;6.81;100.00;99260.81;5113355;27;20088;-84
2023/04/27 02:06:07;;;;;;;35.60;19.52;;;;;;;6.82;100.00;99258.06;5114713;27;20066;-84
2023/04/27 02:08:51;;;;;;;33.75;18.38;;;;;;;6.90;100.00;99267.69;5119900;27;20582;-85
2023/04/27 02:11:35;;;;;;;38.55;19.55;;;;;;;6.92;100.00;99265.72;5119103;27;20172;-85
2023/04/27 02:14:19;;;;;;;34.30;19.42;;;;;;;6.93;100.00;99272.56;5122648;27;20499;-82
2023/04/27 02:17:02;;;;;;;35.58;18.38;;;;;;;6.86;100.00;99261.13;5125434;27;20041;-85
2023/04/27 02:19:46;;;;;;;36.05;17.80;;;;;;;6.90;100.00;99272.91;5122020;27;20034;-82
2023/04/27 02:22:30;;;;;;;38.22;19.05;;;;;;;6.81;100.00;99266.03;5124747;27;20622;-85
2023/04/27 02:25:14;;;;;;;35.65;18.70;;;;;;;6.84;100.00;99260.50;5120591;27;20532;-85
2023/04/27 02:27:58;;;;;;;35.13;18.63;;;;;;;6.69;100.00;99258.56;5114651;27;20081;-85
2023/04/27 02:30:43;;;;;;;37.65;19.65;;;;;;;6.73;100.00;99261.66;5119941;28;20042;-85
2023/04/27 02:33:27;;;;;;;33.85;18.05;;;;;;;6.79;100.00;99247.13;5121632;28;20046;-85
2023/04/27 02:36:11;;;;;;;32.30;18.05;;;;;;;6.80;100.00;99244.38;5122707;28;20050;-86
2023/04/27 02:38:55;;;;;;;35.08;18.00;;;;;;;6.78;100.00;99255.94;5125320;28;20081;-86
2023/04/27 02:41:39;;;;;;;35.08;17.75;;;;;;;6.75;100.00;99245.84;5119797;27;20042;-85
2023/04/27 02:44:23;;;;;;;35.90;16.88;;;;;;;6.78;100.00;99250.72;5124264;27;20085;-85
2023/04/27 02:47:07;;;;;;;31.33;16.58;;;;;;;6.68;100.00;99243.06;5123955;27;20084;-87
2023/04/27 02:49:52;;;;;;;27.17;16.70;;;;;;;6.66;100.00;99238.00;5122619;27;20038;-86
2023/04/27 02:52:36;;;;;;;30.15;16.90;;;;;;;6.57;100.00;99231.16;5126803;27;20123;-85
2023/04/27 02:55:20;;;;;;;32.45;16.98;;;;;;;6.60;100.00;99238.66;5129996;27;20084;-88
2023/04/27 02:58:04;;;;;;;35.10;18.27;;;;;;;6.68;100.00;99245.66;5128842;27;20046;-88
2023/04/27 03:00:56;;;;;;;27.60;16.80;;;;;;;6.63;100.00;99240.94;5125362;27;20058;-85
2023/04/27 03:03:40;;;;;;;30.75;18.13;;;;;;;6.64;100.00;99224.31;5123315;27;20478;-83
2023/04/27 03:06:24;;;;;;;36.47;18.63;;;;;;;6.69;100.00;99235.09;5124861;27;20088;-83
2023/04/27 03:09:11;;;;;;;39.55;17.83;;;;;;;6.78;100.00;99235.06;5118196;27;20049;-83
2023/04/27 03:11:55;;;;;;;33.45;17.83;;;;;;;6.82;100.00;99233.75;5123273;27;20050;-83
2023/04/27 03:14:39;;;;;;;37.25;17.70;;;;;;;6.74;100.00;99231.16;5120687;27;20049;-83
2023/04/27 03:17:23;;;;;;;33.53;18.05;;;;;;;6.75;100.00;99224.97;5123119;27;20038;-83
2023/04/27 03:20:08;;;;;;;35.72;18.02;;;;;;;6.83;100.00;99227.56;5123000;27;20120;-83
2023/04/27 03:22:53;;;;;;;31.70;17.70;;;;;;;6.68;100.00;99215.19;5121040;27;20042;-82
2023/04/27 03:25:37;;;;;;;33.25;18.20;;;;;;;6.68;100.00;99215.19;5126389;27;20046;-83
2023/04/27 03:28:20;;;;;;;33.67;18.77;;;;;;;6.74;100.00;99218.13;5119390;27;20070;-83
2023/04/27 03:31:12;;;;;;;36.40;19.13;;;;;;;6.71;100.00;99208.81;5120473;27;20385;-84
2023/04/27 03:33:57;;;;;;;37.47;18.08;;;;;;;6.75;100.00;99217.13;5123339;27;20096;-83
2023/04/27 03:36:41;;;;;;;33.30;18.17;;;;;;;6.70;100.00;99207.19;5119169;27;20042;-82
2023/04/27 03:39:25;;;;;;;41.08;19.98;;;;;;;6.70;100.00;99208.03;5124744;27;20111;-83
2023/04/27 03:42:09;;;;;;;35.80;19.35;;;;;;;6.88;100.00;99198.38;5127600;27;20042;-83
2023/04/27 03:44:53;;;;;;;38.05;19.90;;;;;;;6.90;100.00;99202.44;5123742;27;20034;-81
2023/04/27 03:47:37;;;;;;;39.28;19.98;;;;;;;6.94;100.00;99202.91;5116417;27;20119;-80
2023/04/27 03:50:21;;;;;;;35.88;20.02;;;;;;;7.07;100.00;99207.59;5119571;27;20123;-82
2023/04/27 03:53:06;;;;;;;43.55;20.10;;;;;;;7.17;100.00;99203.00;5123374;27;20045;-81
2023/04/27 03:55:50;;;;;;;35.67;19.70;;;;;;;7.16;100.00;99201.38;5118138;27;20554;-81
2023/04/27 03:58:34;;;;;;;40.65;20.50;;;;;;;7.14;100.00;99198.13;5125753;27;20400;-80
2023/04/27 04:01:20;;;;;;;43.85;21.27;;;;;;;7.11;100.00;99185.44;5123741;27;20064;-81
2023/04/27 04:04:04;;;;;;;37.90;19.95;;;;;;;7.20;100.00;99196.66;5122160;27;20047;-82
2023/04/27 04:06:48;;;;;;;38.47;20.25;;;;;;;7.31;100.00;99198.09;5124225;27;20046;-82
2023/04/27 04:09:32;;;;;;;38.85;20.65;;;;;;;7.20;100.00;99189.63;5125242;27;20041;-82
2023/04/27 04:12:16;;;;;;;37.05;20.27;;;;;;;7.23;100.00;99194.50;5117616;27;20479;-83
2023/04/27 04:15:00;;;;;;;34.30;20.30;;;;;;;7.25;100.00;99179.47;5116871;27;20161;-82
2023/04/27 04:17:46;;;;;;;40.58;21.05;;;;;;;7.21;100.00;99175.59;5119760;27;20042;-82
2023/04/27 04:20:30;;;;;;;41.92;20.92;;;;;;;7.25;100.00;99182.09;5120095;27;20087;-82
2023/04/27 04:23:14;;;;;;;38.97;20.52;;;;;;;7.17;100.00;99187.34;5123873;27;20043;-83
2023/04/27 04:25:57;;;;;;;38.70;20.55;;;;;;;7.21;100.00;99187.84;5124782;27;20089;-82
2023/04/27 04:28:43;;;;;;;41.13;20.27;;;;;;;7.27;100.00;99187.16;5125346;27;20054;-82
2023/04/27 04:31:27;;;;;;;41.50;20.90;;;;;;;7.22;100.00;99179.81;5125505;27;20503;-84
2023/04/27 04:34:11;;;;;;;40.42;21.65;;;;;;;7.19;100.00;99180.16;5122806;27;20507;-83
2023/04/27 04:36:56;;;;;;;40.63;21.52;;;;;;;7.22;100.00;99179.81;5127283;27;20554;-83
2023/04/27 04:39:40;;;;;;;37.35;21.02;;;;;;;7.17;100.00;99176.91;5123844;27;20229;-84
2023/04/27 04:42:24;;;;;;;37.88;19.95;;;;;;;7.19;100.00;99174.16;5127522;27;20042;-84
2023/04/27 04:45:09;;;;;;;41.17;20.17;;;;;;;7.23;100.00;99181.44;5126482;27;20041;-84
2023/04/27 04:47:53;;;;;;;35.45;20.17;;;;;;;7.24;100.00;99171.84;5123012;27;20164;-84
2023/04/27 04:50:38;;;;;;;42.78;21.05;;;;;;;7.26;100.00;99170.66;5126104;27;20035;-85
2023/04/27 04:53:22;;;;;;;42.38;21.75;;;;;;;7.34;100.00;99184.69;5122200;27;20042;-82
2023/04/27 04:56:10;;;;;;;41.67;20.98;;;;;;;7.35;100.00;99186.31;5120132;27;20062;-81
2023/04/27 04:58:54;;;;;;;41.05;20.90;;;;;;;7.36;100.00;99185.31;5121543;27;20424;-81
2023/04/27 05:01:38;;;;;;;43.90;21.25;;;;;;;7.40;100.00;99187.44;5119477;27;20096;-82
2023/04/27 05:04:22;;;;;;;45.20;22.52;;;;;;;7.47;100.00;99189.34;5121041;27;20503;-81
2023/04/27 05:07:06;;;;;;;42.85;22.42;;;;;;;7.50;100.00;99181.19;5120308;27;20050;-81
2023/04/27 05:09:50;;;;;;;43.20;23.08;;;;;;;7.52;100.00;99182.66;5125845;27;20041;-83
2023/04/27 05:12:34;;;;;;;41.20;22.38;;;;;;;7.64;100.00;99192.69;5121530;27;20054;-82
2023/04/27 05:15:18;;;;;;;46.30;24.23;;;;;;;7.80;100.00;99184.75;5124196;27;20042;-82
2023/04/27 05:18:02;;;;;;;46.35;24.27;;;;;;;7.80;100.00;99186.59;5120290;27;20047;-81
2023/04/27 05:20:46;;;;;;;42.30;23.77;;;;;;;7.98;100.00;99196.75;5127288;27;20050;-83
2023/04/27 05:23:30;;;;;;;55.95;23.35;;;;;;;8.04;100.00;99190.03;5125073;27;20066;-82
2023/04/27 05:26:16;;;;;;;43.40;22.38;;;;;;;8.08;100.00;99189.50;5149797;27;20081;-82
2023/04/27 05:29:00;;;;;;;45.58;24.02;;;;;;;8.09;100.00;99196.34;5119708;27;20042;-82
2023/04/27 05:31:44;;;;;;;42.30;22.80;;;;;;;8.24;100.00;99185.94;5123950;27;20396;-81
2023/04/27 05:34:28;;;;;;;43.38;22.10;;;;;;;8.35;100.00;99200.41;5122176;27;20491;-85
2023/04/27 05:37:13;;;;;;;44.13;22.48;;;;;;;8.39;100.00;99198.25;5117808;27;20046;-81
2023/04/27 05:39:57;;;;;;;46.72;23.40;;;;;;;8.55;100.00;99197.31;5121727;27;20108;-80
2023/04/27 05:42:41;;;;;;;39.75;22.55;;;;;;;8.63;100.00;99188.59;5124103;27;20053;-83
2023/04/27 05:45:25;;;;;;;39.83;21.85;;;;;;;8.77;100.00;99197.44;5122352;27;20029;-77
2023/04/27 05:48:09;;;;;;;38.35;21.65;;;;;;;8.66;100.00;99202.16;5116867;27;20141;-79
2023/04/27 05:51:01;;;;;;;38.63;22.65;;;;;;;8.87;100.00;99200.63;5117286;27;20039;-79
2023/04/27 05:53:45;;;;;;;41.72;23.30;;;;;;;8.80;100.00;99197.09;5116630;27;20235;-79
2023/04/27 05:56:29;;;;;;;39.20;22.75;;;;;;;9.11;100.00;99188.28;5118379;27;20397;-80
2023/04/27 05:59:13;;;;;;;43.97;23.00;;;;;;;9.34;100.00;99187.34;5122937;27;20041;-80
2023/04/27 06:01:57;;;;;;;39.50;22.05;;;;;;;9.49;100.00;99188.16;5116356;27;20046;-80
2023/04/27 06:04:41;;;;;;;42.00;23.52;;;;;;;9.57;100.00;99179.38;5121343;27;20045;-78
2023/04/27 06:07:26;;;;;;;40.63;22.13;;;;;;;9.77;100.00;99176.94;5121988;27;20135;-78
2023/04/27 06:10:10;;;;;;;35.85;22.65;;;;;;;10.01;100.00;99169.72;5124956;27;20046;-78
2023/04/27 06:12:54;;;;;;;37.88;21.70;;;;;;;10.06;100.00;99169.97;5120793;27;20393;-81
2023/04/27 06:15:38;;;;;;;43.25;22.70;;;;;;;10.12;100.00;99169.22;5116851;27;20043;-78
2023/04/27 06:18:22;;;;;;;33.35;20.95;;;;;;;10.26;100.00;99164.09;5116558;27;20037;-79
2023/04/27 06:21:07;;;;;;;41.08;21.92;;;;;;;10.34;100.00;99156.06;5121058;27;20070;-76
2023/04/27 06:23:51;;;;;;;40.30;21.30;;;;;;;10.43;100.00;99162.84;5118443;27;20058;-76
2023/04/27 06:26:48;;;;;;;34.72;21.02;;;;;;;10.42;100.00;99163.84;5074881;28;22327;-77
2023/04/27 06:29:32;;;;;;;33.92;20.02;;;;;;;10.58;100.00;99161.94;5076510;28;20056;-78
2023/04/27 06:32:16;;;;;;;38.72;22.58;;;;;;;10.70;100.00;99164.84;5070538;28;20422;-77
2023/04/27 06:35:01;;;;;;;38.45;21.05;;;;;;;10.72;100.00;99168.09;5076658;28;20097;-78
2023/04/27 06:37:46;;;;;;;39.88;21.55;;;;;;;10.77;100.00;99163.06;5073020;28;20094;-77
2023/04/27 06:40:30;;;;;;;39.72;21.30;;;;;;;10.82;100.00;99167.75;5073301;28;20078;-79
2023/04/27 06:43:14;;;;;;;38.95;20.83;;;;;;;10.73;100.00;99161.03;5074663;28;20068;-79
2023/04/27 06:45:58;;;;;;;39.60;20.80;;;;;;;10.95;100.00;99159.16;5070514;28;20032;-80
2023/04/27 06:48:42;;;;;;;34.28;20.00;;;;;;;10.86;100.00;99164.53;5071057;28;20891;-79
2023/04/27 06:51:26;;;;;;;37.90;19.70;;;;;;;10.82;100.00;99168.56;5073263;28;20106;-78
2023/04/27 06:54:10;;;;;;;41.15;20.83;;;;;;;10.95;100.00;99157.31;5077740;28;20200;-78
2023/04/27 06:56:55;;;;;;;37.25;20.70;;;;;;;10.96;100.00;99168.66;5068726;28;20047;-80
2023/04/27 06:59:39;;;;;;;36.20;21.15;;;;;;;11.07;100.00;99162.03;5079404;28;20595;-79
2023/04/27 07:02:23;;;;;;;41.00;21.38;;;;;;;10.96;100.00;99158.13;5079328;28;20063;-79
2023/04/27 07:05:07;;;;;;;35.05;19.45;;;;;;;11.24;100.00;99171.22;5074970;28;20036;-84
2023/04/27 07:07:52;;;;;;;40.67;21.60;;;;;;;11.26;100.00;99158.69;5079613;28;20085;-84
2023/04/27 07:10:36;;;;;;;34.13;19.42;;;;;;;11.41;100.00;99149.84;5073544;28;20514;-85
2023/04/27 07:13:20;;;;;;;35.17;21.50;;;;;;;11.53;100.00;99158.78;5071358;28;20268;-85
2023/04/27 07:16:04;;;;;;;38.53;21.15;;;;;;;11.49;100.00;99156.72;5076860;28;20086;-80
2023/04/27 07:18:48;;;;;;;37.10;20.25;;;;;;;11.69;100.00;99154.16;5068532;28;20044;-79
2023/04/27 07:21:32;;;;;;;39.33;21.45;;;;;;;11.78;100.00;99155.59;5071854;28;20056;-84
2023/04/27 07:24:16;;;;;;;39.63;21.35;;;;;;;12.00;100.00;99153.59;5075162;28;20040;-80
2023/04/27 07:27:01;;;;;;;39.10;20.52;;;;;;;12.30;100.00;99152.44;5080501;28;20078;-79
2023/04/27 07:29:46;;;;;;;39.30;20.75;;;;;;;12.46;100.00;99148.56;5065798;28;20044;-79
2023/04/27 07:32:30;;;;;;;33.97;21.17;;;;;;;12.33;99.84;99146.75;5062576;28;20110;-80
2023/04/27 07:35:14;;;;;;;39.58;22.20;;;;;;;12.49;99.03;99150.00;5077905;28;20035;-83
2023/04/27 07:38:00;;;;;;;40.72;19.55;;;;;;;12.81;99.27;99158.06;5064472;28;20065;-80
2023/04/27 07:40:45;;;;;;;33.72;19.67;;;;;;;12.89;98.64;99144.66;5058675;28;20406;-79
2023/04/27 07:43:31;;;;;;;30.88;18.85;;;;;;;13.13;97.93;99160.78;5057705;28;20067;-80
2023/04/27 07:46:15;;;;;;;35.38;20.38;;;;;;;13.09;96.72;99146.41;5062929;28;20043;-80
2023/04/27 07:48:59;;;;;;;36.72;20.50;;;;;;;13.15;95.93;99153.47;5068882;28;20063;-79
2023/04/27 07:51:43;;;;;;;32.78;20.27;;;;;;;13.25;95.31;99159.13;5062241;28;20090;-80
2023/04/27 07:54:27;;;;;;;36.92;20.65;;;;;;;13.63;94.95;99159.41;5050842;28;20429;-80
2023/04/27 07:57:11;;;;;;;32.17;19.40;;;;;;;13.90;93.45;99162.69;5066103;28;20040;-80
2023/04/27 07:59:56;;;;;;;32.42;19.05;;;;;;;13.96;91.96;99158.41;5064825;28;20398;-80
2023/04/27 08:02:40;;;;;;;32.13;20.17;;;;;;;13.90;91.88;99172.41;5057244;28;20051;-82
2023/04/27 08:05:24;;;;;;;31.30;19.73;;;;;;;13.96;90.00;99163.66;5065162;28;20072;-82
2023/04/27 08:08:08;;;;;;;33.38;20.60;;;;;;;14.03;88.76;99153.88;5057740;28;20102;-82
2023/04/27 08:10:53;;;;;;;32.58;20.08;;;;;;;14.08;90.31;99154.03;5057818;28;20044;-82
2023/04/27 08:13:37;;;;;;;32.55;20.35;;;;;;;14.12;88.22;99149.13;5065551;28;20508;-82
2023/04/27 08:16:21;;;;;;;36.05;20.85;;;;;;;14.21;88.37;99147.81;5062731;28;20039;-81
2023/04/27 08:19:05;;;;;;;34.42;20.75;;;;;;;14.23;88.20;99142.34;5054456;28;20039;-82
2023/04/27 08:21:49;;;;;;;36.65;21.05;;;;;;;14.31;87.86;99144.69;5058714;28;20133;-79
2023/04/27 08:24:33;;;;;;;29.92;20.27;;;;;;;14.51;87.68;99131.34;5066724;28;20043;-80
2023/04/27 08:27:17;;;;;;;33.33;21.05;;;;;;;14.70;87.06;99131.34;5057729;28;20399;-81
2023/04/27 08:30:01;;;;;;;33.17;20.80;;;;;;;14.94;86.42;99127.06;5062916;28;20402;-79
2023/04/27 08:32:46;;;;;;;38.17;21.17;;;;;;;14.49;86.70;99125.47;5054609;28;20048;-80
2023/04/27 08:35:30;;;;;;;39.83;20.42;;;;;;;14.67;85.66;99124.66;5059240;28;20399;-80
2023/04/27 08:38:14;;;;;;;34.35;22.20;;;;;;;14.68;85.50;99113.06;5061957;28;20039;-79
2023/04/27 08:40:59;;;;;;;36.42;22.52;;;;;;;14.90;84.22;99119.78;5065099;28;20039;-80
2023/04/27 08:43:43;;;;;;;34.25;20.55;;;;;;;15.17;84.85;99109.72;5058420;28;20067;-80
2023/04/27 08:46:28;;;;;;;37.83;21.92;;;;;;;15.39;84.28;99112.66;5064052;28;20058;-80
2023/04/27 08:49:12;;;;;;;33.58;20.45;;;;;;;15.83;82.35;99095.78;5065218;28;20083;-79
2023/04/27 08:51:56;;;;;;;31.55;20.08;;;;;;;15.85;82.27;99105.09;5058024;28;20090;-80
2023/04/27 08:54:40;;;;;;;36.33;21.88;;;;;;;15.74;79.49;99097.94;5059280;28;20132;-80
2023/04/27 08:57:24;;;;;;;37.90;21.23;;;;;;;16.09;79.96;99099.06;5064067;28;20506;-80
2023/04/27 09:00:12;;;;;;;34.38;21.17;;;;;;;15.96;79.62;99094.78;5062032;28;20047;-80
2023/04/27 09:02:56;;;;;;;42.10;22.40;;;;;;;16.04;79.10;99094.44;5061037;28;20132;-80
2023/04/27 09:05:45;;;;;;;34.03;21.27;;;;;;;16.32;79.60;99087.66;5059523;28;20039;-80
2023/04/27 09:08:44;;;;;;;32.05;21.63;;;;;;;15.79;77.96;99087.47;5059410;28;20472;-80
2023/04/27 09:11:28;;;;;;;40.25;22.77;;;;;;;15.58;78.17;99088.78;5061545;28;20111;-79
2023/04/27 09:14:18;;;;;;;31.67;20.65;;;;;;;15.97;78.54;99080.50;5054914;28;20055;-81
2023/04/27 09:17:02;;;;;;;36.92;21.55;;;;;;;15.31;79.15;99072.50;5065060;28;20071;-80
2023/04/27 09:19:46;;;;;;;33.88;20.92;;;;;;;15.81;79.26;99074.81;5056318;28;20123;-81
2023/04/27 09:22:30;;;;;;;36.40;21.13;;;;;;;15.75;80.70;99077.56;5058648;28;20048;-80
2023/04/27 09:25:32;;;;;;;35.65;21.27;;;;;;;15.78;81.72;99079.75;5055835;28;20052;-81
2023/04/27 09:28:16;;;;;;;39.15;22.33;;;;;;;15.87;80.93;99082.88;5059979;28;20047;-80
2023/04/27 09:31:02;;;;;;;34.83;21.30;;;;;;;16.11;80.85;99081.09;5063893;28;20560;-81
2023/04/27 09:33:54;;;;;;;37.22;21.00;;;;;;;16.78;79.85;99079.06;5058212;28;20130;-80
2023/04/27 09:36:39;;;;;;;31.85;20.70;;;;;;;17.25;78.71;99078.94;5061560;28;20035;-81
2023/04/27 09:39:23;;;;;;;33.83;21.33;;;;;;;17.62;78.04;99072.41;5059310;28;20039;-81
2023/04/27 09:42:08;;;;;;;33.05;20.75;;;;;;;17.85;76.52;99076.75;5059452;28;20044;-80
2023/04/27 09:44:53;;;;;;;31.23;20.38;;;;;;;18.31;75.36;99067.06;5058642;28;20446;-81
2023/04/27 09:47:37;;;;;;;32.80;21.20;;;;;;;17.65;74.70;99061.31;5061882;28;20066;-81
2023/04/27 09:50:22;;;;;;;31.25;18.98;;;;;;;17.96;73.52;99059.13;5057399;28;20048;-76
2023/04/27 09:53:09;;;;;;;34.33;19.15;;;;;;;17.76;73.35;99056.97;5061537;28;20047;-77
2023/04/27 09:56:11;;;;;;;27.98;19.08;;;;;;;18.02;71.88;99054.72;5060318;28;20093;-76
2023/04/27 09:59:09;;;;;;;25.15;17.40;;;;;;;18.46;72.16;99055.84;5057648;28;20087;-77
2023/04/27 10:01:59;;;;;;;25.95;18.38;;;;;;;18.59;70.51;99038.75;5054858;28;20091;-77
2023/04/27 10:05:01;;;;;;;28.67;19.10;;;;;;;18.41;70.62;99045.97;5056200;28;20144;-77
2023/04/27 10:07:45;;;;;;;29.70;18.65;;;;;;;18.46;69.88;99037.25;5052531;28;20040;-77
2023/04/27 10:10:30;;;;;;;33.28;18.92;;;;;;;18.25;69.29;99039.63;5050817;28;20514;-77
2023/04/27 10:13:22;;;;;;;26.77;18.30;;;;;;;18.24;70.16;99032.72;5051012;28;20048;-77
2023/04/27 10:16:16;;;;;;;29.95;18.10;;;;;;;18.59;69.91;99042.19;5052561;28;20040;-77
2023/04/27 10:19:08;;;;;;;30.55;19.20;;;;;;;18.51;69.19;99032.78;5056367;28;20047;-78
2023/04/27 10:22:06;;;;;;;32.72;18.48;;;;;;;18.56;69.24;99040.81;5061041;28;20060;-78
2023/04/27 10:24:51;;;;;;;30.00;18.52;;;;;;;18.50;68.28;99041.03;5056882;28;20517;-77
2023/04/27 10:27:38;;;;;;;34.38;19.83;;;;;;;18.60;68.43;99038.50;5061790;28;20063;-80
2023/04/27 10:30:26;;;;;;;30.20;19.05;;;;;;;18.91;67.23;99044.16;5065386;28;20387;-81
2023/04/27 10:33:14;;;;;;;27.92;17.92;;;;;;;18.01;65.99;99036.38;5054846;28;20094;-81
2023/04/27 10:35:59;;;;;;;25.83;15.60;;;;;;;18.72;65.86;99029.59;5059446;28;20040;-82
2023/04/27 10:38:43;;;;;;;28.75;17.42;;;;;;;18.47;64.88;99044.16;5061504;28;20122;-82
2023/04/27 10:41:34;;;;;;;32.35;17.98;;;;;;;18.30;66.32;99042.38;5056071;28;21511;-81
2023/04/27 10:44:24;;;;;;;24.55;16.45;;;;;;;18.32;66.13;99037.63;5055416;28;20106;-82
2023/04/27 10:47:18;;;;;;;27.50;18.48;;;;;;;18.05;65.90;99026.88;5056986;28;20551;-81
2023/04/27 10:50:03;;;;;;;;;;;;;;;18.11;67.07;99020.59;5059500;28;20055;-82
2023/04/27 10:52:48;;;;;;;25.13;16.95;;;;;;;18.69;66.06;99021.06;5056766;28;19958;-81
2023/04/27 10:55:33;;;;;;;28.20;17.40;;;;;;;18.80;65.99;99010.53;5059356;28;20418;-79
2023/04/27 10:58:22;;;;;;;31.98;18.05;;;;;;;18.90;66.14;99020.47;5053296;28;20048;-78
2023/04/27 11:01:06;;;;;;;32.83;18.92;;;;;;;18.49;66.53;99008.31;5061675;28;20051;-78
2023/04/27 11:03:58;;;;;;;33.65;20.75;;;;;;;18.09;67.55;98999.59;5061697;28;20060;-78
2023/04/27 11:06:45;;;;;;;28.75;18.80;;;;;;;17.99;67.33;99007.38;5058301;28;20060;-79
2023/04/27 11:09:30;;;;;;;29.58;18.50;;;;;;;17.89;67.69;98993.97;5064062;28;20094;-78
2023/04/27 11:12:13;;;;;;;28.30;18.95;;;;;;;17.49;67.56;99003.72;5061847;28;20501;-79
2023/04/27 11:14:58;;;;;;;26.02;17.17;;;;;;;17.94;67.49;99000.13;5060301;28;20039;-79
2023/04/27 11:17:41;;;;;;;29.15;17.58;;;;;;;17.71;67.66;98995.84;5068954;28;20048;-79
2023/04/27 11:20:25;;;;;;;32.65;19.23;;;;;;;17.72;68.19;98984.19;5065255;28;20081;-79
2023/04/27 11:23:10;;;;;;;27.15;17.88;;;;;;;17.09;67.49;98985.03;5062897;28;20054;-78
2023/04/27 11:25:55;;;;;;;27.75;18.58;;;;;;;17.22;67.65;98983.91;5071917;28;20062;-78
2023/04/27 11:28:40;;;;;;;30.15;17.65;;;;;;;17.24;67.94;98973.88;5066966;28;20056;-79
2023/04/27 11:31:25;;;;;;;25.38;17.50;;;;;;;17.02;67.28;98965.81;5069117;28;20063;-78
2023/04/27 11:34:15;;;;;;;29.63;17.05;;;;;;;17.53;67.94;98963.19;5061528;28;20052;-79
2023/04/27 11:37:03;;;;;;;28.73;17.40;;;;;;;17.38;67.79;98960.28;5063607;28;20544;-78
2023/04/27 11:39:47;;;;;;;24.27;17.13;;;;;;;17.49;68.11;98963.91;5063327;28;20109;-79
2023/04/27 11:42:31;;;;;;;;;;;;;;;17.35;67.43;98971.41;5067697;28;20423;-79
2023/04/27 11:45:18;;;;;;;27.48;17.13;;;;;;;16.84;67.80;98972.09;5058443;28;20287;-79
2023/04/27 11:48:02;;;;;;;28.95;17.95;;;;;;;17.13;66.77;98964.94;5061919;28;20079;-79
2023/04/27 11:50:49;;;;;;;28.83;16.73;;;;;;;17.28;66.74;98956.41;5066475;28;20040;-79
2023/04/27 11:53:41;;;;;;;26.92;17.75;;;;;;;17.33;66.77;98962.88;5063073;28;20055;-79
2023/04/27 11:56:39;;;;;;;29.77;18.60;;;;;;;16.89;66.98;98953.63;5064488;28;20106;-78
2023/04/27 11:59:24;;;;;;;28.35;17.60;;;;;;;16.89;67.81;98956.25;5069435;28;20121;-78
2023/04/27 12:02:08;;;;;;;34.15;19.42;;;;;;;16.96;67.90;98954.28;5065501;28;20041;-79
2023/04/27 12:04:52;;;;;;;26.38;18.33;;;;;;;17.12;68.28;98947.41;5065000;28;20047;-79
2023/04/27 12:07:37;;;;;;;32.00;19.83;;;;;;;17.23;67.05;98937.00;5066681;28;20043;-79
2023/04/27 12:10:21;;;;;;;29.90;17.98;;;;;;;17.47;67.17;98929.66;5061906;28;20039;-79
2023/04/27 12:13:06;;;;;;;30.77;19.13;;;;;;;16.92;67.27;98918.69;5061918;28;20043;-80
2023/04/27 12:15:50;;;;;;;33.42;19.73;;;;;;;17.05;67.45;98922.09;5065558;28;20068;-80
2023/04/27 12:18:34;;;;;;;23.65;16.98;;;;;;;17.34;66.82;98914.88;5062476;28;20040;-80
2023/04/27 12:21:18;;;;;;;26.85;17.40;;;;;;;16.88;66.18;98911.47;5062586;28;20081;-79
2023/04/27 12:24:02;;;;;;;28.80;18.20;;;;;;;17.08;64.92;98925.09;5064928;28;20039;-79
2023/04/27 12:26:47;;;;;;;26.83;17.23;;;;;;;17.17;66.00;98928.13;5062377;28;20099;-79
2023/04/27 12:29:31;;;;;;;31.48;19.15;;;;;;;16.94;65.58;98927.22;5060382;28;20449;-79
2023/04/27 12:32:16;;;;;;;27.80;17.75;;;;;;;17.07;65.91;98922.66;5058520;28;20086;-80
2023/04/27 12:35:03;;;;;;;30.67;18.33;;;;;;;16.88;65.58;98920.19;5061207;28;20051;-79
2023/04/27 12:37:48;;;;;;;26.20;17.30;;;;;;;16.77;65.69;98918.44;5066071;28;20072;-80
2023/04/27 12:40:32;;;;;;;29.70;19.15;;;;;;;16.46;65.05;98923.16;5056780;28;20048;-80